Puerto Maldonado, Peru
Current Conditions -  °F | °C
As of 11:30 AM on Saturday 20 Dec 2014 (Local Time) from SPZO Reporting Station
Scattered Clouds Scattered Clouds  
Wind Chill: 66°   Ceiling: Unl
Heat Index: 66°   Visibility: 6mi
Dew Point: 43°   Wind: 6mph
Humidity: 43%   Direction: NA
Pressure: 30.36"   Gusts: NA
Location:  12.6°S, 69.2°W
Report Text: SPZO 201630Z VRB05KT 9999 SCT050 SCT080 19/06 Q1028
Loading
Personal Weather Stations






























Interactive Weather Map New forecast layout! Learn more

10-Day Weather Forecast

Advertisements
Track Severe Weather on mobile